Time;durP1;ratioP1;P1;durP2;ratioP2;P2;SDS_P1;SDS_P2;PMS_P1;PMS_P2;Temp;Humidity;BMP_temperature;BMP_pressure;BME280_temperature;BME280_humidity;BME280_pressure;Samples;Min_cycle;Max_cycle;Signal;HPM_P1;HPM_P2
2021/10/30 00:00:23;;;;;;;46.68;26.50;;;;;;;3.85;79.78;99412.08;1782714;79;21160;-67
2021/10/30 00:02:59;;;;;;;42.83;25.50;;;;;;;3.95;79.83;99414.81;1779705;79;20972;-66
2021/10/30 00:05:25;;;;;;;38.80;24.55;;;;;;;4.03;79.72;99416.77;1773956;79;21132;-65
2021/10/30 00:07:52;;;;;;;39.63;25.20;;;;;;;4.12;79.84;99424.30;1754832;79;21508;-66
2021/10/30 00:11:20;;;;;;;43.70;25.55;;;;;;;4.31;79.92;99419.92;1831137;76;21837;-66
2021/10/30 00:13:46;;;;;;;39.20;25.75;;;;;;;4.35;79.82;99420.27;1824660;78;21582;-67
2021/10/30 00:16:19;;;;;;;39.88;25.88;;;;;;;4.38;79.70;99415.02;1785343;79;21303;-66
2021/10/30 00:18:47;;;;;;;46.25;25.82;;;;;;;4.38;79.52;99417.59;1775458;78;21035;-64
2021/10/30 00:21:14;;;;;;;36.90;25.30;;;;;;;4.33;79.53;99409.95;1780898;78;20966;-65
2021/10/30 00:23:41;;;;;;;41.15;26.35;;;;;;;4.36;79.63;99403.86;1776955;79;21052;-65
2021/10/30 00:26:08;;;;;;;38.30;25.48;;;;;;;4.36;79.55;99409.02;1776797;79;20978;-65
2021/10/30 00:28:34;;;;;;;36.58;25.48;;;;;;;4.35;79.66;99402.17;1780677;79;21098;-65
2021/10/30 00:31:01;;;;;;;38.27;24.80;;;;;;;4.38;79.80;99397.77;1781904;79;21037;-65
2021/10/30 00:33:28;;;;;;;42.50;25.92;;;;;;;4.44;79.87;99400.17;1795453;78;20965;-65
2021/10/30 00:35:54;;;;;;;42.05;25.60;;;;;;;4.49;79.85;99393.59;1773406;78;21013;-65
2021/10/30 00:38:21;;;;;;;40.65;25.48;;;;;;;4.52;79.80;99394.80;1781474;78;20974;-65
2021/10/30 00:40:48;;;;;;;39.57;26.13;;;;;;;4.53;79.75;99380.97;1775042;79;21045;-65
2021/10/30 00:43:15;;;;;;;44.13;27.05;;;;;;;4.55;79.82;99384.37;1772974;79;21017;-65
2021/10/30 00:45:47;;;;;;;43.55;26.40;;;;;;;4.57;79.82;99380.01;1779968;78;21599;-65
2021/10/30 00:48:15;;;;;;;38.17;25.15;;;;;;;4.59;79.81;99383.37;1781275;78;21060;-65
2021/10/30 00:50:42;;;;;;;37.90;25.17;;;;;;;4.59;79.79;99387.25;1758784;80;21012;-65
2021/10/30 00:53:11;;;;;;;40.20;25.85;;;;;;;4.59;79.77;99395.02;1748309;79;21436;-64
2021/10/30 00:55:41;;;;;;;38.50;23.80;;;;;;;4.59;79.79;99403.22;1784800;78;21481;-64
2021/10/30 00:58:15;;;;;;;38.78;26.37;;;;;;;4.57;79.69;99406.31;1778327;79;20927;-65
2021/10/30 01:00:39;;;;;;;41.53;27.32;;;;;;;4.52;79.65;99399.97;1776800;79;21509;-65
2021/10/30 01:03:06;;;;;;;52.90;26.85;;;;;;;4.48;79.61;99407.39;1781435;79;21044;-65
2021/10/30 01:05:34;;;;;;;;;;;;;;;4.42;79.56;99406.27;1749440;81;21379;-64
2021/10/30 01:08:01;;;;;;;46.02;27.27;;;;;;;4.37;79.60;99414.59;1771662;79;20172;-65
2021/10/30 01:10:30;;;;;;;47.00;25.97;;;;;;;4.31;79.62;99407.00;1777191;79;20946;-66
2021/10/30 01:12:57;;;;;;;38.10;25.48;;;;;;;4.29;79.77;99406.22;1736415;81;21543;-66
2021/10/30 01:15:23;;;;;;;46.77;27.95;;;;;;;4.26;79.61;99406.70;1742525;80;20989;-66
2021/10/30 01:17:50;;;;;;;47.17;26.30;;;;;;;4.18;79.51;99415.55;1738091;81;21583;-66
2021/10/30 01:20:27;;;;;;;37.67;24.98;;;;;;;4.10;79.48;99419.61;1734056;81;21070;-65
2021/10/30 01:22:53;;;;;;;37.95;26.68;;;;;;;4.04;79.60;99409.44;1736542;81;21552;-66
2021/10/30 01:25:23;;;;;;;42.13;25.25;;;;;;;3.97;79.60;99405.30;1764298;79;21020;-66
2021/10/30 01:27:52;;;;;;;41.10;25.75;;;;;;;3.89;79.62;99407.23;1761108;79;21510;-66
2021/10/30 01:30:20;;;;;;;36.58;24.65;;;;;;;3.80;79.60;99405.27;1748820;80;21092;-66
2021/10/30 01:33:01;;;;;;;39.30;25.48;;;;;;;3.73;79.70;99398.58;1760772;79;20965;-66
2021/10/30 01:35:41;;;;;;;36.60;23.77;;;;;;;3.67;79.80;99397.45;1771352;78;20994;-66
2021/10/30 01:38:10;;;;;;;40.00;25.90;;;;;;;3.65;79.87;99397.92;1776706;80;21052;-66
2021/10/30 01:40:47;;;;;;;55.45;30.52;;;;;;;3.60;79.84;99399.76;1742386;81;21556;-66
2021/10/30 01:43:15;;;;;;;44.95;29.55;;;;;;;3.55;79.91;99399.02;1721523;81;21085;-66
2021/10/30 01:45:45;;;;;;;45.43;27.37;;;;;;;3.54;79.94;99397.33;1760046;79;21020;-66
2021/10/30 01:48:12;;;;;;;37.48;26.12;;;;;;;3.51;79.89;99398.25;1761789;79;22452;-66
2021/10/30 01:50:40;;;;;;;44.58;25.85;;;;;;;3.49;79.91;99399.16;1755934;79;21246;-65
2021/10/30 01:53:07;;;;;;;35.63;24.75;;;;;;;3.48;79.91;99400.06;1772217;80;21738;-66
2021/10/30 01:55:38;;;;;;;40.75;23.22;;;;;;;3.47;79.94;99398.34;1743518;81;21619;-66
2021/10/30 01:58:06;;;;;;;31.87;21.17;;;;;;;3.47;80.03;99390.60;1768745;80;20991;-66
2021/10/30 02:00:35;;;;;;;38.38;24.40;;;;;;;3.48;80.08;99389.73;1726215;81;21030;-66
2021/10/30 02:03:02;;;;;;;37.60;22.00;;;;;;;3.51;80.11;99374.17;1761288;79;20945;-66
2021/10/30 02:05:29;;;;;;;34.05;21.93;;;;;;;3.52;80.12;99371.98;1748590;81;21517;-66
2021/10/30 02:07:56;;;;;;;34.38;22.40;;;;;;;3.56;80.20;99373.63;1760470;79;21409;-65
2021/10/30 02:10:23;;;;;;;39.20;21.82;;;;;;;3.58;80.25;99366.25;1762652;78;21002;-66
2021/10/30 02:12:49;;;;;;;36.08;22.60;;;;;;;3.60;80.25;99373.94;1772531;79;21066;-66
2021/10/30 02:15:16;;;;;;;34.80;23.38;;;;;;;3.62;80.12;99369.59;1785257;79;21098;-65
2021/10/30 02:17:43;;;;;;;35.73;22.98;;;;;;;3.65;80.20;99377.27;1781984;79;21010;-66
2021/10/30 02:20:11;;;;;;;33.02;22.25;;;;;;;3.64;80.03;99383.33;1782470;78;21450;-66
2021/10/30 02:22:38;;;;;;;33.92;22.07;;;;;;;3.61;80.04;99379.50;1777970;79;20991;-65
2021/10/30 02:25:06;;;;;;;;;;;;;;;3.61;80.06;99388.53;1777187;79;21526;-66
2021/10/30 02:27:33;;;;;;;36.48;22.85;;;;;;;3.58;80.06;99391.19;1772515;78;20167;-66
2021/10/30 02:30:00;;;;;;;34.88;23.62;;;;;;;3.52;79.95;99390.05;1780296;79;20991;-65
2021/10/30 02:32:27;;;;;;;35.92;21.93;;;;;;;3.46;79.97;99391.50;1746132;79;21139;-65
2021/10/30 02:34:53;;;;;;;32.53;22.60;;;;;;;3.44;80.12;99388.09;1782978;78;21021;-66
2021/10/30 02:37:20;;;;;;;31.23;22.80;;;;;;;3.43;80.24;99382.53;1781180;78;20957;-66
2021/10/30 02:39:47;;;;;;;37.35;24.30;;;;;;;3.46;80.39;99378.59;1783465;78;21563;-65
2021/10/30 02:42:13;;;;;;;32.47;23.57;;;;;;;3.48;80.31;99381.99;1781733;79;21021;-65
2021/10/30 02:44:40;;;;;;;40.30;24.40;;;;;;;3.51;80.42;99390.95;1786372;79;20902;-66
2021/10/30 02:47:07;;;;;;;37.03;24.18;;;;;;;3.56;80.58;99387.83;1775703;79;21064;-66
2021/10/30 02:49:34;;;;;;;40.15;25.32;;;;;;;3.60;80.42;99389.43;1783687;79;21541;-66
2021/10/30 02:52:00;;;;;;;37.20;23.92;;;;;;;3.61;80.34;99380.79;1783155;79;21540;-65
2021/10/30 02:54:27;;;;;;;40.20;25.30;;;;;;;3.60;80.28;99384.27;1761904;79;20991;-65
2021/10/30 02:56:54;;;;;;;40.38;23.45;;;;;;;3.58;80.26;99380.86;1761236;81;21120;-66
2021/10/30 02:59:20;;;;;;;35.47;23.73;;;;;;;3.60;80.34;99381.69;1774176;79;20900;-66
2021/10/30 03:01:47;;;;;;;41.50;25.02;;;;;;;3.61;80.34;99379.50;1748611;81;21043;-66
2021/10/30 03:04:14;;;;;;;45.05;24.32;;;;;;;3.64;80.40;99385.91;1781525;79;21031;-65
2021/10/30 03:06:40;;;;;;;38.57;23.43;;;;;;;3.65;80.37;99385.01;1750238;80;20950;-65
2021/10/30 03:09:07;;;;;;;37.63;23.55;;;;;;;3.64;80.32;99380.74;1772609;79;21111;-66
2021/10/30 03:11:34;;;;;;;34.67;21.87;;;;;;;3.64;80.38;99385.91;1757024;79;20995;-66
2021/10/30 03:14:00;;;;;;;38.45;23.07;;;;;;;3.64;80.40;99379.45;1762539;80;20946;-65
2021/10/30 03:16:27;;;;;;;37.75;24.30;;;;;;;3.65;80.39;99382.42;1732320;81;21144;-65
2021/10/30 03:18:54;;;;;;;37.98;23.50;;;;;;;3.63;80.39;99379.03;1763976;80;21136;-65
2021/10/30 03:21:23;;;;;;;38.00;23.83;;;;;;;3.63;80.34;99384.19;1760582;80;21068;-66
2021/10/30 03:23:50;;;;;;;41.05;24.07;;;;;;;3.62;80.34;99390.25;1729776;82;21072;-66
2021/10/30 03:26:17;;;;;;;36.38;23.98;;;;;;;3.60;80.36;99393.30;1761323;79;21521;-65
2021/10/30 03:28:44;;;;;;;37.87;26.20;;;;;;;3.59;80.40;99393.75;1753450;81;20993;-65
2021/10/30 03:31:11;;;;;;;36.55;24.82;;;;;;;3.58;80.34;99393.77;1753104;80;20972;-66
2021/10/30 03:33:37;;;;;;;42.50;25.85;;;;;;;3.55;80.28;99393.85;1752789;80;21110;-65
2021/10/30 03:36:05;;;;;;;45.23;27.03;;;;;;;3.50;80.38;99400.84;1761560;80;21664;-66
2021/10/30 03:38:31;;;;;;;41.28;25.12;;;;;;;3.46;80.38;99396.66;1741885;79;21570;-65
2021/10/30 03:40:58;;;;;;;37.65;26.65;;;;;;;3.43;80.37;99395.44;1727079;81;21023;-66
2021/10/30 03:43:25;;;;;;;47.15;27.20;;;;;;;3.41;80.39;99403.66;1760655;81;21015;-66
2021/10/30 03:45:52;;;;;;;40.38;25.77;;;;;;;3.39;80.46;99402.83;1731161;81;21134;-65
2021/10/30 03:48:20;;;;;;;44.27;26.60;;;;;;;3.36;80.54;99402.05;1754133;81;20973;-66
2021/10/30 03:50:50;;;;;;;39.08;24.77;;;;;;;3.36;80.58;99404.63;1759353;79;21517;-66
2021/10/30 03:53:17;;;;;;;42.55;26.82;;;;;;;3.39;80.56;99413.16;1760262;80;20956;-66
2021/10/30 03:55:44;;;;;;;36.75;25.05;;;;;;;3.39;80.56;99407.99;1734160;81;21019;-66
2021/10/30 03:58:10;;;;;;;38.05;24.92;;;;;;;3.38;80.57;99403.73;1759581;80;22285;-66
2021/10/30 04:00:37;;;;;;;39.80;24.70;;;;;;;3.36;80.59;99398.17;1764461;81;21464;-66
2021/10/30 04:03:05;;;;;;;42.08;23.45;;;;;;;3.35;80.57;99400.33;1762201;80;21581;-66
2021/10/30 04:05:32;;;;;;;40.65;23.90;;;;;;;3.34;80.48;99401.22;1761040;79;20992;-66
2021/10/30 04:07:59;;;;;;;44.53;24.40;;;;;;;3.33;80.57;99390.92;1766684;79;21021;-65
2021/10/30 04:10:26;;;;;;;39.90;23.33;;;;;;;3.31;80.51;99403.88;1756569;79;21151;-65
2021/10/30 04:12:52;;;;;;;40.55;25.10;;;;;;;3.30;80.56;99394.41;1761576;79;21100;-66
2021/10/30 04:15:19;;;;;;;44.93;26.00;;;;;;;3.30;80.59;99393.57;1727410;81;21052;-66
2021/10/30 04:17:45;;;;;;;35.70;24.45;;;;;;;3.28;80.62;99388.47;1768816;79;21765;-66
2021/10/30 04:20:12;;;;;;;34.53;23.62;;;;;;;3.27;80.62;99389.33;1752037;79;21005;-66
2021/10/30 04:22:39;;;;;;;35.60;25.75;;;;;;;3.24;80.72;99384.23;1770417;79;21106;-66
2021/10/30 04:25:08;;;;;;;36.85;23.73;;;;;;;3.23;80.70;99390.30;1753573;79;21461;-66
2021/10/30 04:27:34;;;;;;;39.10;24.98;;;;;;;3.21;80.69;99392.05;1735881;81;21634;-66
2021/10/30 04:30:01;;;;;;;35.67;24.30;;;;;;;3.19;80.77;99386.07;1732998;81;21090;-66
2021/10/30 04:32:28;;;;;;;36.33;23.90;;;;;;;3.19;80.81;99378.33;1734668;81;20934;-66
2021/10/30 04:35:09;;;;;;;33.88;23.02;;;;;;;3.19;80.85;99374.46;1756560;79;21174;-65
2021/10/30 04:37:37;;;;;;;41.75;23.80;;;;;;;3.19;80.75;99365.43;1750646;79;21063;-66
2021/10/30 04:40:06;;;;;;;35.68;22.70;;;;;;;3.14;80.69;99362.13;1768377;80;21058;-66
2021/10/30 04:42:33;;;;;;;35.17;22.62;;;;;;;3.12;80.74;99362.60;1751952;79;20965;-66
2021/10/30 04:44:59;;;;;;;36.55;22.02;;;;;;;3.13;80.85;99363.00;1769366;79;22419;-66
2021/10/30 04:47:26;;;;;;;34.27;22.10;;;;;;;3.12;80.95;99370.34;1722748;81;21558;-66
2021/10/30 04:49:53;;;;;;;36.47;21.97;;;;;;;3.14;80.96;99370.72;1774623;80;20989;-66
2021/10/30 04:52:20;;;;;;;36.10;22.40;;;;;;;3.14;80.90;99371.16;1761319;79;21124;-66
2021/10/30 04:54:47;;;;;;;34.53;22.65;;;;;;;3.13;80.82;99375.90;1722964;81;20950;-67
2021/10/30 04:57:14;;;;;;;36.90;23.45;;;;;;;3.11;80.77;99371.23;1724665;81;20990;-66
2021/10/30 04:59:41;;;;;;;40.30;24.13;;;;;;;3.09;80.89;99369.13;1740199;81;21978;-66
2021/10/30 05:02:08;;;;;;;36.68;23.07;;;;;;;3.08;80.87;99369.98;1760741;79;21174;-66
2021/10/30 05:04:35;;;;;;;37.75;23.12;;;;;;;3.08;80.94;99385.47;1760714;79;21047;-66
2021/10/30 05:07:02;;;;;;;35.20;23.30;;;;;;;3.08;80.98;99373.85;1780058;80;21040;-66
2021/10/30 05:09:31;;;;;;;38.13;23.35;;;;;;;3.08;81.04;99370.86;1730177;81;21195;-66
2021/10/30 05:11:58;;;;;;;53.75;23.00;;;;;;;3.09;81.07;99379.44;1778978;79;21062;-66
2021/10/30 05:14:59;;;;;;;39.45;23.38;;;;;;;3.14;81.09;99381.48;1794285;78;22837;-66
2021/10/30 05:17:25;;;;;;;39.35;23.18;;;;;;;3.11;81.10;99380.27;1771188;78;21106;-66
2021/10/30 05:19:52;;;;;;;38.00;23.30;;;;;;;3.12;81.14;99381.95;1769226;79;21481;-66
2021/10/30 05:22:19;;;;;;;37.23;23.85;;;;;;;3.12;81.09;99371.63;1770914;80;20942;-66
2021/10/30 05:24:46;;;;;;;41.83;24.05;;;;;;;3.10;81.06;99381.13;1768222;80;21048;-67
2021/10/30 05:27:13;;;;;;;36.63;23.75;;;;;;;3.10;81.17;99381.13;1766723;80;21603;-66
2021/10/30 05:29:39;;;;;;;30.92;22.95;;;;;;;3.10;81.25;99381.13;1764827;80;21563;-67
2021/10/30 05:32:07;;;;;;;36.75;25.10;;;;;;;3.14;81.37;99372.45;1768349;80;21099;-66
2021/10/30 05:34:34;;;;;;;34.15;22.80;;;;;;;3.17;81.33;99377.55;1769823;80;21476;-66
2021/10/30 05:37:01;;;;;;;34.17;23.67;;;;;;;3.20;81.37;99385.20;1769972;80;21005;-67
2021/10/30 05:39:27;;;;;;;35.78;23.52;;;;;;;3.21;81.36;99380.45;1771124;80;21876;-67
2021/10/30 05:41:54;;;;;;;40.28;22.87;;;;;;;3.25;81.37;99382.09;1771633;79;21136;-66
2021/10/30 05:44:21;;;;;;;36.83;22.50;;;;;;;3.27;81.39;99381.59;1709900;81;21160;-65
2021/10/30 05:46:48;;;;;;;49.57;24.73;;;;;;;3.31;81.43;99381.94;1741395;81;21631;-66
2021/10/30 05:49:17;;;;;;;33.23;21.93;;;;;;;3.36;81.37;99388.27;1707963;82;21552;-66
2021/10/30 05:51:44;;;;;;;32.70;21.75;;;;;;;3.42;81.46;99389.86;1718520;81;20990;-65
2021/10/30 05:54:11;;;;;;;36.85;22.13;;;;;;;3.46;81.41;99395.37;1717137;83;20908;-65
2021/10/30 05:56:38;;;;;;;33.83;22.52;;;;;;;3.50;81.43;99395.69;1717011;82;22005;-66
2021/10/30 05:59:04;;;;;;;32.03;21.50;;;;;;;3.55;81.40;99399.86;1706329;82;20979;-65
2021/10/30 06:01:32;;;;;;;42.95;23.77;;;;;;;3.64;81.44;99405.69;1735556;80;21073;-66
2021/10/30 06:03:58;;;;;;;;;;;;;;;3.75;81.44;99391.66;1744454;81;21507;-66
2021/10/30 06:06:25;;;;;;;31.50;21.95;;;;;;;3.87;81.44;99387.07;1719916;81;20232;-66
2021/10/30 06:08:52;;;;;;;33.60;22.00;;;;;;;3.98;81.41;99382.48;1716445;83;21622;-66
2021/10/30 06:11:19;;;;;;;35.38;22.80;;;;;;;4.11;81.37;99378.66;1683462;82;21409;-66
2021/10/30 06:13:46;;;;;;;33.77;22.17;;;;;;;4.24;81.34;99387.79;1719548;81;21582;-66
2021/10/30 06:16:15;;;;;;;30.02;20.08;;;;;;;4.41;81.29;99386.48;1721859;81;21052;-65
2021/10/30 06:18:42;;;;;;;31.33;21.27;;;;;;;4.57;81.21;99377.42;1722481;82;21758;-66
2021/10/30 06:21:12;;;;;;;40.73;20.75;;;;;;;4.74;81.16;99383.86;1719383;82;21909;-65
2021/10/30 06:23:39;;;;;;;30.68;19.85;;;;;;;4.93;81.11;99388.89;1722985;81;21548;-66
2021/10/30 06:26:05;;;;;;;27.45;18.62;;;;;;;5.12;81.06;99383.54;1720889;82;21070;-65
2021/10/30 06:28:32;;;;;;;29.30;20.12;;;;;;;5.33;80.93;99387.68;1724769;82;21494;-66
2021/10/30 06:30:58;;;;;;;29.15;19.98;;;;;;;5.50;80.85;99380.22;1715926;81;21135;-67
2021/10/30 06:33:25;;;;;;;30.40;19.95;;;;;;;5.69;80.86;99390.00;1716557;81;21916;-68
2021/10/30 06:35:52;;;;;;;32.23;19.48;;;;;;;5.91;80.79;99385.80;1715654;81;21022;-68
2021/10/30 06:38:18;;;;;;;32.15;19.87;;;;;;;6.02;80.41;99385.02;1718303;81;21087;-68
2021/10/30 06:40:47;;;;;;;31.82;19.57;;;;;;;6.12;80.52;99382.11;1716925;82;21108;-69
2021/10/30 06:43:14;;;;;;;30.45;19.37;;;;;;;6.22;80.48;99391.27;1718796;81;21020;-68
2021/10/30 06:45:40;;;;;;;21.10;15.98;;;;;;;6.25;80.54;99387.27;1716077;82;22135;-68
2021/10/30 06:48:08;;;;;;;19.82;15.70;;;;;;;6.30;80.54;99380.15;1719553;81;21080;-69
2021/10/30 06:50:34;;;;;;;21.80;15.53;;;;;;;6.30;80.57;99388.38;1716737;81;22500;-69
2021/10/30 06:53:01;;;;;;;25.17;18.57;;;;;;;6.33;80.68;99393.03;1715230;82;21060;-69
2021/10/30 06:55:28;;;;;;;17.87;15.70;;;;;;;6.35;80.72;99395.10;1715700;82;21049;-69
2021/10/30 06:57:55;;;;;;;30.27;20.23;;;;;;;6.37;80.69;99399.80;1714330;82;21007;-69
2021/10/30 07:00:21;;;;;;;22.52;15.55;;;;;;;6.40;80.78;99398.39;1710032;82;20962;-68
2021/10/30 07:02:51;;;;;;;20.85;16.30;;;;;;;6.44;80.80;99401.28;1718827;81;21084;-68
2021/10/30 07:05:17;;;;;;;20.68;14.95;;;;;;;6.49;80.85;99403.23;1713325;82;21017;-67
2021/10/30 07:07:44;;;;;;;34.53;19.00;;;;;;;6.57;80.89;99412.51;1686318;82;21981;-69
2021/10/30 07:10:11;;;;;;;31.57;19.10;;;;;;;6.63;80.90;99412.28;1711120;81;21109;-68
2021/10/30 07:12:39;;;;;;;26.37;18.65;;;;;;;6.73;80.96;99411.05;1712409;82;21515;-68
2021/10/30 07:15:11;;;;;;;26.68;19.95;;;;;;;6.82;80.91;99417.20;1714722;82;21019;-68
2021/10/30 07:17:41;;;;;;;26.30;19.90;;;;;;;6.94;80.96;99417.19;1721420;82;21120;-69
2021/10/30 07:20:10;;;;;;;26.50;19.48;;;;;;;7.07;80.85;99414.99;1725493;81;21003;-67
2021/10/30 07:22:46;;;;;;;26.95;18.45;;;;;;;7.16;80.72;99409.44;1722873;81;21092;-67
2021/10/30 07:25:20;;;;;;;26.07;18.65;;;;;;;7.25;80.66;99406.48;1717378;81;21052;-69
2021/10/30 07:28:42;;;;;;;34.88;15.32;;;;;;;7.41;80.53;99409.34;1842419;75;22707;-68
2021/10/30 07:31:09;;;;;;;21.07;16.32;;;;;;;7.47;80.69;99410.85;1787212;79;21138;-68
2021/10/30 07:33:45;;;;;;;22.05;15.45;;;;;;;7.57;80.60;99414.78;1794247;79;21504;-70
2021/10/30 07:38:27;;;;;;;18.20;14.73;;;;;;;7.82;80.55;99420.69;1807078;76;25837;-68
2021/10/30 07:41:02;;;;;;;19.77;15.30;;;;;;;7.89;80.41;99430.83;1800659;78;21040;-68
2021/10/30 07:43:28;;;;;;;17.73;14.15;;;;;;;8.01;80.54;99436.37;1735789;79;21744;-69
2021/10/30 07:45:54;;;;;;;23.35;15.23;;;;;;;8.13;80.39;99431.12;1816748;77;21248;-69
2021/10/30 07:48:22;;;;;;;23.10;15.18;;;;;;;8.24;80.10;99421.56;1774074;78;21021;-69
2021/10/30 07:50:48;;;;;;;;;;;;;;;8.36;80.28;99426.70;1820079;77;20947;-68
2021/10/30 07:53:15;;;;;;;40.30;16.80;;;;;;;8.46;80.05;99427.58;1810564;77;20157;-69
2021/10/30 07:55:42;;;;;;;23.70;15.72;;;;;;;8.57;80.02;99432.31;1798464;77;21068;-69
2021/10/30 07:58:09;;;;;;;23.50;14.78;;;;;;;8.66;79.85;99437.11;1810408;77;21424;-69
2021/10/30 08:00:35;;;;;;;19.23;15.18;;;;;;;8.76;79.94;99432.79;1780919;77;21052;-69
2021/10/30 08:03:04;;;;;;;18.67;14.07;;;;;;;8.86;79.74;99419.77;1808920;77;21805;-69
2021/10/30 08:05:31;;;;;;;20.95;14.50;;;;;;;8.92;79.51;99424.69;1816926;77;20982;-69
2021/10/30 08:07:58;;;;;;;33.30;15.07;;;;;;;9.01;79.70;99429.47;1817809;77;21067;-69
2021/10/30 08:10:27;;;;;;;42.60;33.95;;;;;;;9.10;79.56;99426.47;1816772;77;20978;-69
2021/10/30 08:12:56;;;;;;;40.05;28.57;;;;;;;9.17;79.37;99422.65;1817159;77;21047;-69
2021/10/30 08:15:23;;;;;;;22.37;17.15;;;;;;;9.21;79.10;99423.34;1762573;79;20952;-70
2021/10/30 08:17:55;;;;;;;34.18;15.35;;;;;;;9.27;79.23;99419.61;1822597;77;20976;-68
2021/10/30 08:20:22;;;;;;;21.62;13.90;;;;;;;9.30;78.94;99423.37;1769107;78;21838;-68
2021/10/30 08:22:49;;;;;;;22.90;13.50;;;;;;;9.33;78.85;99424.55;1815249;77;21091;-70
2021/10/30 08:25:16;;;;;;;21.10;14.75;;;;;;;9.39;79.05;99433.38;1815170;77;21032;-70
2021/10/30 08:27:42;;;;;;;19.90;14.15;;;;;;;9.46;78.91;99432.16;1770452;79;21507;-70
2021/10/30 08:30:10;;;;;;;19.77;13.65;;;;;;;9.57;79.12;99431.66;1772921;79;21687;-70
2021/10/30 08:32:37;;;;;;;33.00;14.45;;;;;;;9.71;78.99;99427.92;1823495;77;21269;-68
2021/10/30 08:35:05;;;;;;;27.13;13.65;;;;;;;9.83;78.92;99426.48;1826146;77;20878;-70
2021/10/30 08:37:32;;;;;;;17.50;13.48;;;;;;;9.91;78.73;99428.25;1763887;79;21022;-69
2021/10/30 08:39:58;;;;;;;24.77;14.43;;;;;;;10.01;78.71;99423.44;1812293;77;20950;-69
2021/10/30 08:42:26;;;;;;;24.30;13.87;;;;;;;10.13;78.72;99427.20;1787913;78;21043;-70
2021/10/30 08:44:55;;;;;;;21.23;14.07;;;;;;;10.24;78.63;99422.28;1781621;78;24340;-70
2021/10/30 08:47:23;;;;;;;22.75;13.85;;;;;;;10.32;78.34;99418.86;1776337;77;20992;-70
2021/10/30 08:51:13;;;;;;;17.07;13.22;;;;;;;10.36;78.00;99404.72;1824445;76;22238;-69
2021/10/30 08:53:40;;;;;;;32.85;14.23;;;;;;;10.38;78.19;99408.09;1809676;77;21037;-68
2021/10/30 08:56:10;;;;;;;17.67;12.87;;;;;;;10.43;77.98;99407.41;1801413;77;21181;-69
2021/10/30 08:58:39;;;;;;;17.90;12.85;;;;;;;10.41;77.55;99402.72;1805528;77;21080;-70
2021/10/30 09:01:09;;;;;;;22.00;12.63;;;;;;;10.40;77.64;99398.44;1797655;77;20961;-72
2021/10/30 09:03:38;;;;;;;15.63;12.93;;;;;;;10.42;77.60;99400.95;1815295;77;20959;-71
2021/10/30 09:06:06;;;;;;;21.57;13.83;;;;;;;10.43;77.49;99402.19;1809145;77;20959;-71
2021/10/30 09:08:33;;;;;;;;;;;;;;;10.44;77.31;99399.11;1808340;77;21231;-71
2021/10/30 09:11:03;;;;;;;;;;;;;;;10.44;76.99;99399.11;1819591;77;20139;-71
2021/10/30 09:13:31;;;;;;;29.63;15.25;;;;;;;10.44;77.09;99399.95;1801303;77;20138;-70
2021/10/30 09:18:48;;;;;;;16.80;12.07;;;;;;;10.51;77.00;99406.55;1728550;81;20977;-71
2021/10/30 09:21:18;;;;;;;22.35;14.15;;;;;;;10.60;77.15;99399.16;1728592;80;22082;-67
2021/10/30 09:23:54;;;;;;;19.27;13.80;;;;;;;10.64;76.66;99399.37;1726483;81;21002;-68
2021/10/30 09:26:31;;;;;;;18.37;13.22;;;;;;;10.67;76.73;99392.67;1723505;81;21082;-74
2021/10/30 09:29:09;;;;;;;19.85;12.78;;;;;;;10.71;76.75;99402.05;1721237;81;21469;-73
2021/10/30 09:31:36;;;;;;;18.90;12.88;;;;;;;10.73;76.50;99401.52;1728418;81;21017;-72
2021/10/30 09:34:09;;;;;;;15.83;12.58;;;;;;;10.76;76.59;99398.73;1731094;81;21547;-72
2021/10/30 09:36:43;;;;;;;26.87;12.90;;;;;;;10.81;76.57;99396.73;1722168;81;20915;-70
2021/10/30 09:39:14;;;;;;;19.55;13.70;;;;;;;10.86;76.23;99398.61;1720024;81;21632;-72
2021/10/30 09:41:44;;;;;;;13.38;11.38;;;;;;;10.94;76.33;99401.66;1728776;81;21047;-69
2021/10/30 09:44:18;;;;;;;41.83;14.25;;;;;;;11.00;76.08;99399.64;1723596;81;21015;-71
2021/10/30 09:46:53;;;;;;;16.07;12.03;;;;;;;11.07;75.85;99403.62;1724717;81;21168;-72
2021/10/30 09:49:27;;;;;;;18.73;12.13;;;;;;;11.14;75.80;99403.66;1722682;81;21053;-73
2021/10/30 09:52:08;;;;;;;20.62;12.43;;;;;;;11.23;76.09;99399.25;1724109;81;21725;-71
2021/10/30 09:54:43;;;;;;;14.45;11.97;;;;;;;11.31;75.63;99402.25;1729568;81;21104;-72
2021/10/30 09:57:14;;;;;;;16.35;12.00;;;;;;;11.36;75.66;99400.23;1728796;80;21588;-73
2021/10/30 09:59:42;;;;;;;14.33;11.43;;;;;;;11.43;75.54;99401.59;1731975;81;21090;-73
2021/10/30 10:02:10;;;;;;;16.90;12.15;;;;;;;11.51;75.40;99401.61;1727932;81;21060;-74
2021/10/30 10:04:40;;;;;;;;;;;;;;;11.53;74.87;99395.84;1729182;81;20994;-72
2021/10/30 10:07:11;;;;;;;23.02;10.53;;;;;;;11.59;74.94;99401.55;1721934;81;20163;-72
2021/10/30 10:09:39;;;;;;;19.42;11.70;;;;;;;11.67;75.03;99408.14;1723190;81;21604;-72
2021/10/30 10:12:07;;;;;;;;;;;;;;;11.72;74.84;99404.33;1726559;81;21136;-72
2021/10/30 10:14:35;;;;;;;25.88;12.45;;;;;;;11.76;74.60;99401.94;1719955;81;20149;-72
2021/10/30 10:17:03;;;;;;;15.15;10.82;;;;;;;11.78;74.54;99411.83;1720200;81;21606;-71
2021/10/30 10:19:30;;;;;;;23.87;11.30;;;;;;;11.83;74.57;99406.34;1716720;81;20989;-72
2021/10/30 10:21:56;;;;;;;42.27;13.47;;;;;;;11.94;74.47;99397.91;1711918;81;21829;-72
2021/10/30 10:24:35;;;;;;;21.93;11.45;;;;;;;11.94;74.47;99397.91;1716705;81;22254;-71
2021/10/30 10:27:05;;;;;;;12.00;9.88;;;;;;;11.97;74.13;99395.11;1719451;81;20995;-72
2021/10/30 10:29:37;;;;;;;19.30;10.53;;;;;;;12.03;74.08;99390.82;1716958;81;21005;-71
2021/10/30 10:32:11;;;;;;;19.75;11.65;;;;;;;12.10;74.28;99386.92;1717718;81;21030;-72
2021/10/30 10:34:41;;;;;;;13.40;10.10;;;;;;;12.18;74.22;99382.52;1717698;81;21672;-71
2021/10/30 10:37:20;;;;;;;16.00;11.08;;;;;;;12.24;73.72;99390.87;1712096;81;21003;-71
2021/10/30 10:39:57;;;;;;;44.30;13.88;;;;;;;12.29;73.79;99383.59;1718146;81;21061;-71
2021/10/30 10:42:40;;;;;;;15.48;11.53;;;;;;;12.34;73.55;99379.84;1717516;82;21081;-70
2021/10/30 10:45:17;;;;;;;21.97;10.70;;;;;;;12.39;73.72;99377.80;1718861;81;20922;-71
2021/10/30 10:47:50;;;;;;;16.95;10.78;;;;;;;12.47;73.42;99383.42;1721592;83;20989;-70
2021/10/30 10:50:32;;;;;;;16.93;10.43;;;;;;;12.47;73.31;99378.19;1717977;81;21132;-70
2021/10/30 10:53:09;;;;;;;13.72;10.48;;;;;;;12.47;73.13;99376.41;1709957;83;22045;-71
2021/10/30 10:55:46;;;;;;;22.77;10.90;;;;;;;12.50;73.20;99379.30;1712980;81;21553;-71
2021/10/30 10:58:16;;;;;;;16.17;10.53;;;;;;;12.58;73.41;99370.52;1710754;81;21314;-71
2021/10/30 11:01:07;;;;;;;16.93;12.53;;;;;;;12.68;72.65;99363.76;1714704;81;21635;-71
2021/10/30 11:03:49;;;;;;;15.32;12.50;;;;;;;12.68;72.65;99363.76;1710148;83;21287;-71
2021/10/30 11:06:15;;;;;;;20.90;11.93;;;;;;;12.67;72.27;99364.70;1711586;83;21064;-71
2021/10/30 11:08:42;;;;;;;14.60;11.63;;;;;;;12.65;72.44;99363.95;1710203;83;20922;-71
2021/10/30 11:11:19;;;;;;;14.60;11.65;;;;;;;12.69;72.45;99365.46;1713102;83;20990;-71
2021/10/30 11:13:52;;;;;;;16.25;11.45;;;;;;;12.71;72.33;99366.19;1715208;82;20951;-71
2021/10/30 11:16:28;;;;;;;19.57;12.23;;;;;;;12.76;72.34;99358.89;1710540;81;21112;-73
2021/10/30 11:19:07;;;;;;;30.37;12.15;;;;;;;12.81;72.02;99357.78;1721598;81;21417;-73
2021/10/30 11:21:39;;;;;;;16.45;12.13;;;;;;;12.82;71.87;99355.52;1718795;81;21352;-71
2021/10/30 11:24:22;;;;;;;15.58;12.00;;;;;;;12.80;71.00;99352.14;1716443;83;21132;-70
2021/10/30 11:27:01;;;;;;;17.30;11.83;;;;;;;12.80;71.00;99352.14;1716169;83;20996;-69
2021/10/30 11:29:28;;;;;;;12.98;11.03;;;;;;;12.79;71.33;99341.30;1720941;81;21096;-70
2021/10/30 11:31:59;;;;;;;15.72;11.73;;;;;;;12.81;71.31;99349.92;1716584;83;21053;-70
2021/10/30 11:34:26;;;;;;;13.05;10.68;;;;;;;12.86;71.37;99345.23;1718168;81;21069;-70
2021/10/30 11:36:56;;;;;;;11.83;9.85;;;;;;;12.89;71.14;99339.80;1717943;81;21057;-70
2021/10/30 11:39:25;;;;;;;15.68;10.10;;;;;;;12.87;70.72;99336.43;1720898;81;20967;-70
2021/10/30 11:41:52;;;;;;;14.33;10.03;;;;;;;12.85;70.74;99339.61;1717080;82;21064;-70